Time;durP1;ratioP1;P1;durP2;ratioP2;P2;SDS_P1;SDS_P2;PMS_P1;PMS_P2;Temp;Humidity;BMP_temperature;BMP_pressure;BME280_temperature;BME280_humidity;BME280_pressure;Samples;Min_cycle;Max_cycle;Signal;HPM_P1;HPM_P2
2024/01/24 00:01:59;;;;;;;1.20;0.38;;;;;;;;;;5038725;27;91909;-76
2024/01/24 00:04:26;;;;;;;0.90;0.30;;;;;;;;;;5051534;27;92391;-75
2024/01/24 00:06:53;;;;;;;1.77;0.70;;;;;;;;;;5029546;28;92957;-75
2024/01/24 00:09:19;;;;;;;0.40;0.40;;;;;;;;;;5029967;27;95908;-75
2024/01/24 00:11:46;;;;;;;1.08;0.50;;;;;;;;;;5031433;27;94077;-75
2024/01/24 00:14:12;;;;;;;0.98;0.38;;;;;;;;;;5052293;27;92484;-75
2024/01/24 00:16:39;;;;;;;1.30;0.75;;;;;;;;;;5034003;27;93745;-76
2024/01/24 00:19:06;;;;;;;0.95;0.30;;;;;;;;;;5034634;27;93788;-75
2024/01/24 00:21:32;;;;;;;0.65;0.52;;;;;;;;;;5036981;27;93970;-75
2024/01/24 00:23:59;;;;;;;1.38;0.50;;;;;;;;;;5041596;27;92317;-76
2024/01/24 00:26:25;;;;;;;0.50;0.20;;;;;;;;;;5059292;27;91564;-75
2024/01/24 00:28:52;;;;;;;1.38;0.45;;;;;;;;;;5056672;27;92436;-75
2024/01/24 00:31:18;;;;;;;0.40;0.32;;;;;;;;;;5052637;27;92523;-75
2024/01/24 00:33:45;;;;;;;2.65;0.63;;;;;;;;;;5048987;27;94837;-75
2024/01/24 00:36:11;;;;;;;2.47;0.50;;;;;;;;;;5053926;27;93234;-76
2024/01/24 00:38:38;;;;;;;1.75;0.40;;;;;;;;;;5052677;27;92303;-76
2024/01/24 00:41:05;;;;;;;1.00;0.77;;;;;;;;;;5052296;27;92669;-75
2024/01/24 00:43:32;;;;;;;0.32;0.30;;;;;;;;;;5055537;27;91999;-76
2024/01/24 00:45:58;;;;;;;0.93;0.40;;;;;;;;;;5052029;27;92418;-75
2024/01/24 00:48:25;;;;;;;1.25;0.30;;;;;;;;;;5051940;27;92489;-76
2024/01/24 00:50:53;;;;;;;0.60;0.40;;;;;;;;;;5051762;27;92718;-76
2024/01/24 00:53:20;;;;;;;0.55;0.38;;;;;;;;;;5051591;27;93113;-76
2024/01/24 00:55:46;;;;;;;0.50;0.32;;;;;;;;;;5050870;27;92336;-76
2024/01/24 00:58:13;;;;;;;1.65;0.50;;;;;;;;;;5049842;27;96044;-76
2024/01/24 01:00:39;;;;;;;1.63;0.40;;;;;;;;;;5034755;27;93423;-76
2024/01/24 01:03:07;;;;;;;0.82;0.40;;;;;;;;;;5055890;27;92865;-76
2024/01/24 01:05:33;;;;;;;1.05;0.28;;;;;;;;;;5039560;27;93164;-76
2024/01/24 01:08:00;;;;;;;0.63;0.57;;;;;;;;;;5055593;27;92798;-76
2024/01/24 01:10:26;;;;;;;0.40;0.40;;;;;;;;;;5042327;27;92505;-76
2024/01/24 01:12:54;;;;;;;0.65;0.40;;;;;;;;;;5056318;27;92259;-76
2024/01/24 01:15:20;;;;;;;0.30;0.30;;;;;;;;;;5054778;27;92185;-76
2024/01/24 01:17:47;;;;;;;0.80;0.47;;;;;;;;;;5055868;27;92427;-76
2024/01/24 01:20:14;;;;;;;0.20;0.20;;;;;;;;;;5054155;27;92460;-75
2024/01/24 01:22:41;;;;;;;0.60;0.47;;;;;;;;;;5036453;27;94857;-76
2024/01/24 01:25:08;;;;;;;1.55;0.35;;;;;;;;;;5053504;27;93899;-76
2024/01/24 01:27:34;;;;;;;1.15;0.40;;;;;;;;;;5059009;27;92912;-76
2024/01/24 01:30:00;;;;;;;0.80;0.30;;;;;;;;;;5053483;27;93071;-75
2024/01/24 01:32:27;;;;;;;0.82;0.30;;;;;;;;;;5055679;27;92545;-76
2024/01/24 01:34:54;;;;;;;0.75;0.65;;;;;;;;;;5053545;27;92499;-75
2024/01/24 01:37:23;;;;;;;0.50;0.30;;;;;;;;;;5037197;27;92321;-76
2024/01/24 01:39:50;;;;;;;0.17;0.17;;;;;;;;;;5035273;27;94128;-76
2024/01/24 01:42:16;;;;;;;0.73;0.22;;;;;;;;;;5055668;27;93441;-76
2024/01/24 01:44:46;;;;;;;1.05;0.20;;;;;;;;;;5035245;27;94254;-76
2024/01/24 01:47:13;;;;;;;0.50;0.10;;;;;;;;;;5050362;27;94848;-76
2024/01/24 01:49:40;;;;;;;0.30;0.30;;;;;;;;;;5056011;27;92862;-76
2024/01/24 01:52:07;;;;;;;1.35;0.85;;;;;;;;;;5055533;27;92371;-76
2024/01/24 01:54:33;;;;;;;0.30;0.30;;;;;;;;;;5053278;27;92792;-76
2024/01/24 01:57:01;;;;;;;0.30;0.30;;;;;;;;;;5055238;27;92590;-75
2024/01/24 01:59:27;;;;;;;0.20;0.20;;;;;;;;;;5055335;27;93067;-75
2024/01/24 02:01:54;;;;;;;0.20;0.20;;;;;;;;;;5036351;27;92943;-75
2024/01/24 02:04:21;;;;;;;0.20;0.20;;;;;;;;;;5054500;27;92194;-75
2024/01/24 02:06:48;;;;;;;0.70;0.20;;;;;;;;;;5031408;28;93943;-75
2024/01/24 02:09:14;;;;;;;0.45;0.30;;;;;;;;;;5046213;27;93019;-76
2024/01/24 02:11:41;;;;;;;0.30;0.30;;;;;;;;;;5035132;27;94723;-76
2024/01/24 02:14:07;;;;;;;2.13;0.22;;;;;;;;;;5061564;27;92490;-76
2024/01/24 02:16:34;;;;;;;0.68;0.28;;;;;;;;;;5042475;27;93114;-76
2024/01/24 02:19:01;;;;;;;0.30;0.30;;;;;;;;;;5054345;27;92329;-76
2024/01/24 02:21:27;;;;;;;0.40;0.40;;;;;;;;;;5035182;27;95167;-76
2024/01/24 02:23:54;;;;;;;0.90;0.40;;;;;;;;;;5054599;27;92440;-75
2024/01/24 02:26:20;;;;;;;1.10;0.30;;;;;;;;;;5035225;27;94485;-75
2024/01/24 02:28:47;;;;;;;1.33;0.25;;;;;;;;;;5019427;27;94564;-76
2024/01/24 02:31:13;;;;;;;0.88;0.40;;;;;;;;;;5056160;27;93196;-75
2024/01/24 02:33:40;;;;;;;1.95;0.50;;;;;;;;;;5035489;27;93563;-76
2024/01/24 02:36:07;;;;;;;0.25;0.25;;;;;;;;;;5052121;27;94892;-76
2024/01/24 02:38:33;;;;;;;1.27;0.52;;;;;;;;;;5053670;27;92784;-76
2024/01/24 02:40:59;;;;;;;1.75;0.38;;;;;;;;;;5053508;27;92523;-76
2024/01/24 02:43:26;;;;;;;1.40;0.40;;;;;;;;;;5054000;27;92419;-76
2024/01/24 02:45:52;;;;;;;0.88;0.50;;;;;;;;;;5034441;27;95779;-76
2024/01/24 02:48:19;;;;;;;2.42;0.40;;;;;;;;;;5054428;27;93010;-75
2024/01/24 02:50:45;;;;;;;1.23;0.30;;;;;;;;;;5034268;27;93418;-75
2024/01/24 02:53:12;;;;;;;2.65;0.50;;;;;;;;;;5039457;27;92225;-75
2024/01/24 02:55:38;;;;;;;0.25;0.25;;;;;;;;;;5053343;27;92430;-76
2024/01/24 02:58:05;;;;;;;0.25;0.20;;;;;;;;;;5053274;27;92735;-76
2024/01/24 03:00:31;;;;;;;2.28;0.40;;;;;;;;;;5051095;27;94826;-76
2024/01/24 03:02:58;;;;;;;0.50;0.25;;;;;;;;;;5035438;27;94191;-77
2024/01/24 03:05:24;;;;;;;3.40;1.08;;;;;;;;;;5034276;27;92454;-75
2024/01/24 03:07:51;;;;;;;2.92;1.02;;;;;;;;;;5053697;27;92410;-76
2024/01/24 03:10:17;;;;;;;2.65;0.50;;;;;;;;;;5052242;27;92433;-76
2024/01/24 03:12:44;;;;;;;3.45;0.88;;;;;;;;;;5054182;27;92187;-76
2024/01/24 03:15:10;;;;;;;1.58;0.50;;;;;;;;;;5055231;27;92922;-76
2024/01/24 03:17:37;;;;;;;1.75;0.75;;;;;;;;;;5055134;27;91927;-76
2024/01/24 03:20:05;;;;;;;1.00;0.60;;;;;;;;;;5052566;27;92289;-75
2024/01/24 03:22:31;;;;;;;1.63;0.60;;;;;;;;;;5053660;27;93005;-75
2024/01/24 03:24:58;;;;;;;2.75;0.60;;;;;;;;;;5049450;27;95633;-76
2024/01/24 03:27:24;;;;;;;1.75;0.70;;;;;;;;;;5052904;27;92355;-76
2024/01/24 03:29:51;;;;;;;1.23;0.57;;;;;;;;;;5037370;27;92516;-75
2024/01/24 03:32:18;;;;;;;2.20;0.70;;;;;;;;;;5054227;27;92165;-76
2024/01/24 03:34:52;;;;;;;2.83;0.75;;;;;;;;;;5033736;27;94070;-75
2024/01/24 03:37:19;;;;;;;1.13;0.60;;;;;;;;;;5056954;27;92367;-76
2024/01/24 03:39:45;;;;;;;2.45;0.80;;;;;;;;;;5051229;27;92460;-76
2024/01/24 03:42:12;;;;;;;1.65;0.50;;;;;;;;;;5036080;27;92740;-76
2024/01/24 03:44:39;;;;;;;4.10;0.70;;;;;;;;;;5050894;27;93947;-76
2024/01/24 03:47:05;;;;;;;4.10;1.05;;;;;;;;;;5035411;27;92457;-76
2024/01/24 03:49:32;;;;;;;2.03;0.73;;;;;;;;;;5049830;27;94786;-76
2024/01/24 03:51:59;;;;;;;0.60;0.52;;;;;;;;;;5035181;27;92525;-76
2024/01/24 03:54:25;;;;;;;5.70;0.90;;;;;;;;;;5051836;27;93317;-76
2024/01/24 03:56:52;;;;;;;0.93;0.80;;;;;;;;;;5034543;27;92332;-76
2024/01/24 03:59:18;;;;;;;2.05;0.82;;;;;;;;;;5054783;27;92932;-76
2024/01/24 04:01:45;;;;;;;1.77;0.60;;;;;;;;;;5052608;27;93049;-76
2024/01/24 04:04:11;;;;;;;2.25;1.02;;;;;;;;;;5052840;27;92465;-76
2024/01/24 04:06:38;;;;;;;3.22;0.90;;;;;;;;;;5053082;27;92830;-76
2024/01/24 04:09:04;;;;;;;6.68;1.00;;;;;;;;;;5053785;27;92399;-76
2024/01/24 04:11:31;;;;;;;3.90;0.98;;;;;;;;;;5052141;27;94069;-76
2024/01/24 04:13:57;;;;;;;3.13;0.70;;;;;;;;;;5032240;27;94832;-76
2024/01/24 04:16:24;;;;;;;4.85;1.35;;;;;;;;;;5051969;27;93876;-76
2024/01/24 04:18:50;;;;;;;4.25;1.10;;;;;;;;;;5034556;27;93875;-76
2024/01/24 04:21:17;;;;;;;6.75;1.38;;;;;;;;;;5055532;27;92473;-76
2024/01/24 04:23:44;;;;;;;3.25;0.90;;;;;;;;;;5051279;27;92347;-76
2024/01/24 04:26:10;;;;;;;6.65;1.40;;;;;;;;;;5017662;27;92372;-76
2024/01/24 04:28:37;;;;;;;7.45;1.55;;;;;;;;;;5052260;27;92451;-76
2024/01/24 04:31:04;;;;;;;3.45;1.50;;;;;;;;;;5052557;27;92711;-76
2024/01/24 04:33:30;;;;;;;4.75;1.90;;;;;;;;;;5051787;27;92453;-76
2024/01/24 04:35:57;;;;;;;3.47;1.13;;;;;;;;;;5053671;27;92358;-78
2024/01/24 04:38:24;;;;;;;5.45;1.60;;;;;;;;;;5053518;27;94644;-76
2024/01/24 04:40:51;;;;;;;7.03;1.52;;;;;;;;;;5057887;27;92837;-76
2024/01/24 04:43:19;;;;;;;6.38;1.58;;;;;;;;;;5056078;27;93147;-76
2024/01/24 04:45:46;;;;;;;3.58;1.42;;;;;;;;;;5054926;27;92624;-77
2024/01/24 04:48:12;;;;;;;10.57;2.22;;;;;;;;;;5037551;27;92844;-76
2024/01/24 04:50:39;;;;;;;10.88;2.40;;;;;;;;;;5036212;27;93810;-76
2024/01/24 04:53:05;;;;;;;12.57;2.78;;;;;;;;;;5049640;27;92538;-75
2024/01/24 04:55:32;;;;;;;11.90;2.63;;;;;;;;;;5036348;27;92103;-76
2024/01/24 04:57:59;;;;;;;15.13;1.88;;;;;;;;;;5055604;27;93043;-76
2024/01/24 05:00:26;;;;;;;12.52;1.92;;;;;;;;;;5054691;27;92641;-76
2024/01/24 05:02:52;;;;;;;13.73;2.53;;;;;;;;;;5057585;27;94831;-76
2024/01/24 05:05:19;;;;;;;10.57;2.95;;;;;;;;;;5035661;27;94471;-77
2024/01/24 05:07:45;;;;;;;9.55;2.40;;;;;;;;;;5055752;27;93910;-76
2024/01/24 05:10:12;;;;;;;13.60;3.10;;;;;;;;;;5035685;27;92608;-76
2024/01/24 05:12:38;;;;;;;7.78;1.90;;;;;;;;;;5056382;27;92687;-76
2024/01/24 05:15:07;;;;;;;7.65;2.10;;;;;;;;;;5035543;27;94037;-76
2024/01/24 05:17:34;;;;;;;20.00;3.13;;;;;;;;;;5055929;27;92399;-77
2024/01/24 05:20:01;;;;;;;10.13;2.10;;;;;;;;;;5019436;27;95466;-76
2024/01/24 05:22:28;;;;;;;10.95;2.35;;;;;;;;;;5055924;27;92428;-77
2024/01/24 05:24:54;;;;;;;11.68;2.97;;;;;;;;;;5056778;27;93090;-76
2024/01/24 05:27:21;;;;;;;10.85;3.42;;;;;;;;;;5054073;27;94865;-76
2024/01/24 05:29:47;;;;;;;17.75;3.55;;;;;;;;;;5053306;27;93196;-76
2024/01/24 05:32:14;;;;;;;10.98;2.78;;;;;;;;;;5038183;27;92239;-76
2024/01/24 05:34:40;;;;;;;11.63;3.72;;;;;;;;;;5034849;27;92160;-76
2024/01/24 05:37:07;;;;;;;11.15;2.95;;;;;;;;;;5055706;27;92372;-76
2024/01/24 05:39:34;;;;;;;13.23;3.28;;;;;;;;;;5053186;27;92360;-76
2024/01/24 05:42:00;;;;;;;14.23;3.10;;;;;;;;;;5055143;27;92380;-76
2024/01/24 05:44:27;;;;;;;14.23;4.00;;;;;;;;;;5019341;27;94391;-76
2024/01/24 05:46:53;;;;;;;15.43;3.13;;;;;;;;;;5055546;27;92873;-76
2024/01/24 05:49:20;;;;;;;13.63;3.08;;;;;;;;;;5054264;27;92298;-76
2024/01/24 05:51:47;;;;;;;13.95;3.80;;;;;;;;;;5052555;27;94818;-75
2024/01/24 05:54:13;;;;;;;19.02;4.03;;;;;;;;;;5054137;27;94171;-75
2024/01/24 05:56:40;;;;;;;12.48;3.53;;;;;;;;;;5054688;27;92345;-75
2024/01/24 05:59:06;;;;;;;18.33;3.75;;;;;;;;;;5055081;27;92528;-76
2024/01/24 06:01:33;;;;;;;17.17;4.60;;;;;;;;;;5054538;27;92664;-76
2024/01/24 06:03:59;;;;;;;10.95;3.00;;;;;;;;;;5054637;27;92467;-76
2024/01/24 06:06:26;;;;;;;12.35;3.58;;;;;;;;;;5054208;27;92326;-75
2024/01/24 06:08:52;;;;;;;14.95;4.38;;;;;;;;;;5038963;27;94809;-75
2024/01/24 06:11:19;;;;;;;14.68;3.42;;;;;;;;;;5035842;27;93131;-76
2024/01/24 06:13:45;;;;;;;18.17;4.47;;;;;;;;;;5054472;27;93001;-76
2024/01/24 06:16:12;;;;;;;18.80;4.88;;;;;;;;;;5033770;27;97143;-76
2024/01/24 06:18:38;;;;;;;16.05;3.83;;;;;;;;;;5054126;27;92847;-77
2024/01/24 06:21:05;;;;;;;15.25;4.28;;;;;;;;;;5035304;27;94943;-77
2024/01/24 06:23:31;;;;;;;13.68;3.60;;;;;;;;;;5049770;27;93004;-76
2024/01/24 06:25:58;;;;;;;18.63;4.13;;;;;;;;;;5045422;27;92933;-77
2024/01/24 06:28:24;;;;;;;19.33;3.28;;;;;;;;;;5057350;27;92620;-74
2024/01/24 06:30:51;;;;;;;18.60;4.60;;;;;;;;;;5034373;27;92537;-75
2024/01/24 06:33:18;;;;;;;19.65;4.15;;;;;;;;;;5055225;27;91967;-74
2024/01/24 06:35:45;;;;;;;17.10;4.72;;;;;;;;;;5053007;27;92403;-74
2024/01/24 06:38:12;;;;;;;10.63;3.03;;;;;;;;;;5054933;27;92484;-75
2024/01/24 06:40:39;;;;;;;14.75;3.47;;;;;;;;;;5051511;27;94959;-75
2024/01/24 06:43:06;;;;;;;15.35;4.47;;;;;;;;;;5054071;27;92226;-79
2024/01/24 06:45:32;;;;;;;15.43;4.30;;;;;;;;;;5052160;27;92742;-74
2024/01/24 06:47:58;;;;;;;19.75;4.13;;;;;;;;;;5054457;27;92230;-73
2024/01/24 06:50:25;;;;;;;17.15;4.30;;;;;;;;;;5056924;27;92457;-74
2024/01/24 06:52:52;;;;;;;19.10;4.53;;;;;;;;;;5054057;27;92473;-74
2024/01/24 06:55:18;;;;;;;14.75;4.35;;;;;;;;;;5052978;27;92943;-74
2024/01/24 06:57:45;;;;;;;13.75;3.70;;;;;;;;;;5035688;27;92076;-73
2024/01/24 07:00:12;;;;;;;14.02;3.63;;;;;;;;;;5034655;27;92351;-74
2024/01/24 07:02:39;;;;;;;14.98;3.60;;;;;;;;;;5053816;27;93350;-78
2024/01/24 07:05:06;;;;;;;12.75;3.58;;;;;;;;;;5032811;27;94718;-76
2024/01/24 07:07:33;;;;;;;19.73;4.40;;;;;;;;;;5035419;27;96159;-76
2024/01/24 07:09:59;;;;;;;15.38;3.95;;;;;;;;;;5053164;27;92287;-76
2024/01/24 07:12:26;;;;;;;14.27;3.70;;;;;;;;;;5039769;27;95021;-75
2024/01/24 07:14:52;;;;;;;23.83;4.63;;;;;;;;;;5033962;27;93116;-76
2024/01/24 07:17:19;;;;;;;19.23;4.10;;;;;;;;;;5036801;27;95004;-76
2024/01/24 07:19:46;;;;;;;10.55;3.28;;;;;;;;;;5053669;27;92629;-76
2024/01/24 07:22:13;;;;;;;20.83;5.38;;;;;;;;;;5036567;27;94356;-77
2024/01/24 07:24:42;;;;;;;23.83;4.90;;;;;;;;;;5054079;27;92951;-78
2024/01/24 07:27:09;;;;;;;23.40;4.35;;;;;;;;;;5037386;27;92498;-78
2024/01/24 07:29:35;;;;;;;20.25;4.35;;;;;;;;;;5051668;27;94941;-77
2024/01/24 07:32:03;;;;;;;16.15;4.30;;;;;;;;;;5018943;27;92367;-76
2024/01/24 07:34:30;;;;;;;14.55;3.78;;;;;;;;;;5056741;27;92619;-75
2024/01/24 07:36:56;;;;;;;20.23;4.28;;;;;;;;;;5054237;27;92464;-77
2024/01/24 07:39:23;;;;;;;19.13;3.42;;;;;;;;;;5035490;27;94488;-76
2024/01/24 07:41:49;;;;;;;20.02;4.95;;;;;;;;;;5036433;27;95227;-76
2024/01/24 07:44:16;;;;;;;19.23;3.95;;;;;;;;;;5054249;27;92129;-75
2024/01/24 07:46:43;;;;;;;14.60;3.72;;;;;;;;;;5054637;27;93054;-74
2024/01/24 07:49:10;;;;;;;14.27;4.40;;;;;;;;;;5045811;27;93031;-75
2024/01/24 07:51:37;;;;;;;16.80;3.97;;;;;;;;;;5051935;27;92442;-75
2024/01/24 07:54:04;;;;;;;21.38;4.72;;;;;;;;;;5065055;27;95068;-81
2024/01/24 07:56:31;;;;;;;12.85;3.75;;;;;;;;;;5059712;27;93405;-76
2024/01/24 07:58:58;;;;;;;14.75;4.82;;;;;;;;;;5056171;27;92873;-77
2024/01/24 08:01:26;;;;;;;19.10;5.53;;;;;;;;;;5054708;27;92254;-77
2024/01/24 08:03:53;;;;;;;19.90;4.32;;;;;;;;;;5055102;27;93780;-77
2024/01/24 08:06:21;;;;;;;17.02;4.03;;;;;;;;;;5053999;27;92953;-76
2024/01/24 08:08:49;;;;;;;27.63;5.05;;;;;;;;;;5053754;27;93097;-77
2024/01/24 08:11:16;;;;;;;14.85;4.60;;;;;;;;;;5053634;27;92222;-78
2024/01/24 08:13:43;;;;;;;21.23;4.85;;;;;;;;;;5054061;27;92330;-77
2024/01/24 08:16:10;;;;;;;19.15;4.80;;;;;;;;;;5054247;27;92414;-76
2024/01/24 08:18:37;;;;;;;20.95;4.78;;;;;;;;;;5049344;27;94814;-75
2024/01/24 08:21:03;;;;;;;15.13;4.65;;;;;;;;;;5045782;27;93194;-78
2024/01/24 08:23:33;;;;;;;26.52;4.75;;;;;;;;;;5039024;27;93079;-79
2024/01/24 08:26:14;;;;;;;16.45;4.30;;;;;;;;;;5028319;27;93551;-78
2024/01/24 08:28:42;;;;;;;15.63;3.83;;;;;;;;;;5054577;27;93036;-78
2024/01/24 08:31:09;;;;;;;15.20;3.55;;;;;;;;;;5054149;27;92881;-81
2024/01/24 08:33:36;;;;;;;18.70;4.22;;;;;;;;;;5035421;27;92496;-75
2024/01/24 08:36:03;;;;;;;14.15;3.78;;;;;;;;;;5053751;27;92904;-77
2024/01/24 08:38:30;;;;;;;13.90;4.55;;;;;;;;;;5055903;27;92769;-78
2024/01/24 08:40:56;;;;;;;24.30;4.65;;;;;;;;;;5053397;27;92367;-76
2024/01/24 08:43:23;;;;;;;19.83;4.78;;;;;;;;;;5052591;27;94792;-78
2024/01/24 08:45:50;;;;;;;13.90;4.38;;;;;;;;;;5052870;27;94113;-77
2024/01/24 08:48:17;;;;;;;18.98;4.65;;;;;;;;;;5055028;27;92512;-80
2024/01/24 08:50:45;;;;;;;21.67;4.05;;;;;;;;;;5038299;27;92816;-80
2024/01/24 08:53:11;;;;;;;39.25;6.00;;;;;;;;;;5054470;27;93148;-75
2024/01/24 08:55:38;;;;;;;16.52;4.00;;;;;;;;;;5032433;27;95631;-75
2024/01/24 08:58:04;;;;;;;20.27;4.45;;;;;;;;;;5052235;27;92905;-75
2024/01/24 09:00:31;;;;;;;20.13;4.70;;;;;;;;;;5037365;27;93676;-75
2024/01/24 09:02:58;;;;;;;14.30;4.38;;;;;;;;;;5034588;27;92472;-75
2024/01/24 09:05:25;;;;;;;17.20;4.25;;;;;;;;;;5052626;27;92515;-75
2024/01/24 09:07:52;;;;;;;19.48;4.43;;;;;;;;;;5050948;27;96433;-75
2024/01/24 09:10:19;;;;;;;15.73;4.22;;;;;;;;;;5052007;27;92457;-75
2024/01/24 09:12:46;;;;;;;12.82;3.72;;;;;;;;;;5052578;27;92303;-75
2024/01/24 09:15:12;;;;;;;15.95;4.07;;;;;;;;;;5051298;27;92416;-75
2024/01/24 09:17:39;;;;;;;14.85;4.57;;;;;;;;;;5052235;27;92422;-75
2024/01/24 09:20:06;;;;;;;16.27;5.32;;;;;;;;;;5051321;27;93785;-75
2024/01/24 09:22:33;;;;;;;22.15;4.47;;;;;;;;;;5039142;27;92417;-75
2024/01/24 09:25:00;;;;;;;15.10;4.53;;;;;;;;;;5056408;27;92276;-75
2024/01/24 09:27:31;;;;;;;16.63;4.60;;;;;;;;;;5042685;27;93248;-75
2024/01/24 09:29:58;;;;;;;18.85;4.78;;;;;;;;;;5055486;27;92465;-76
2024/01/24 09:32:24;;;;;;;15.63;4.50;;;;;;;;;;5054909;27;94816;-75
2024/01/24 09:34:51;;;;;;;16.88;3.95;;;;;;;;;;5020924;27;95612;-75
2024/01/24 09:37:19;;;;;;;13.77;4.53;;;;;;;;;;5058987;27;92328;-76
2024/01/24 09:39:46;;;;;;;27.00;3.85;;;;;;;;;;5057600;27;93914;-77
2024/01/24 09:42:18;;;;;;;15.05;3.80;;;;;;;;;;5057180;27;92997;-76
2024/01/24 09:44:47;;;;;;;12.50;4.28;;;;;;;;;;5023956;27;92552;-75
2024/01/24 09:47:14;;;;;;;24.50;4.05;;;;;;;;;;5037719;27;94065;-75
2024/01/24 09:49:40;;;;;;;16.85;4.13;;;;;;;;;;5056226;27;91920;-76
2024/01/24 09:52:07;;;;;;;15.13;4.22;;;;;;;;;;5037993;27;92319;-75
2024/01/24 09:54:35;;;;;;;16.17;4.40;;;;;;;;;;5055599;27;92260;-75
2024/01/24 09:57:02;;;;;;;15.48;4.47;;;;;;;;;;5053616;27;94919;-74
2024/01/24 09:59:29;;;;;;;21.90;4.40;;;;;;;;;;5055927;27;94040;-80
2024/01/24 10:01:55;;;;;;;16.30;3.85;;;;;;;;;;5024992;27;95679;-81
2024/01/24 10:04:23;;;;;;;16.45;4.85;;;;;;;;;;5042644;27;92445;-82
2024/01/24 10:06:52;;;;;;;14.35;3.55;;;;;;;;;;5044196;27;94867;-81
2024/01/24 10:09:19;;;;;;;15.20;4.35;;;;;;;;;;5041724;27;94222;-81
2024/01/24 10:11:46;;;;;;;9.05;3.33;;;;;;;;;;5042796;27;92311;-82
2024/01/24 10:14:13;;;;;;;16.85;3.75;;;;;;;;;;5041432;27;93282;-82
2024/01/24 10:16:40;;;;;;;18.20;4.35;;;;;;;;;;5061873;27;92320;-83
2024/01/24 10:19:07;;;;;;;20.75;4.30;;;;;;;;;;5059690;27;92379;-85
2024/01/24 10:21:34;;;;;;;12.75;4.05;;;;;;;;;;5059097;27;94856;-84
2024/01/24 10:24:00;;;;;;;17.88;4.65;;;;;;;;;;5060013;27;92649;-75
2024/01/24 10:26:29;;;;;;;20.17;4.35;;;;;;;;;;5037778;27;94295;-75
2024/01/24 10:28:56;;;;;;;19.33;5.15;;;;;;;;;;5054585;27;92489;-76
2024/01/24 10:31:23;;;;;;;14.18;3.70;;;;;;;;;;5054204;27;92680;-75
2024/01/24 10:33:53;;;;;;;22.60;4.07;;;;;;;;;;5052136;27;92984;-75
2024/01/24 10:36:20;;;;;;;18.25;5.13;;;;;;;;;;5054072;27;94047;-76
2024/01/24 10:39:01;;;;;;;23.60;4.90;;;;;;;;;;5054999;27;93050;-75
2024/01/24 10:41:28;;;;;;;;;;;;;;;;;;5054609;27;92409;-76
2024/01/24 10:43:56;;;;;;;10.48;3.35;;;;;;;;;;5054149;27;119912;-76
2024/01/24 10:46:23;;;;;;;21.98;5.15;;;;;;;;;;5044041;27;96183;-75
2024/01/24 10:48:53;;;;;;;14.82;4.07;;;;;;;;;;5032724;27;93909;-75
2024/01/24 10:51:20;;;;;;;20.77;4.77;;;;;;;;;;5023517;27;92459;-76
2024/01/24 10:53:48;;;;;;;15.93;4.32;;;;;;;;;;5053540;27;92421;-76
2024/01/24 10:56:15;;;;;;;21.33;4.43;;;;;;;;;;5053577;27;92493;-76
2024/01/24 10:58:42;;;;;;;14.15;4.70;;;;;;;;;;5037804;27;92271;-76
2024/01/24 11:01:09;;;;;;;14.18;3.60;;;;;;;;;;5052522;27;92334;-75
2024/01/24 11:03:36;;;;;;;15.30;4.07;;;;;;;;;;5035696;27;92840;-76
2024/01/24 11:06:05;;;;;;;15.63;4.78;;;;;;;;;;5052318;27;92921;-76
2024/01/24 11:08:51;;;;;;;16.42;4.05;;;;;;;;;;5054134;27;92366;-76
2024/01/24 11:11:19;;;;;;;15.25;3.97;;;;;;;;;;5055978;27;94928;-76
2024/01/24 11:13:46;;;;;;;15.45;4.07;;;;;;;;;;5053999;27;93102;-76
2024/01/24 11:16:24;;;;;;;15.90;4.50;;;;;;;;;;5053871;27;92518;-76
2024/01/24 11:18:51;;;;;;;16.83;4.45;;;;;;;;;;5053648;27;92909;-76
2024/01/24 11:21:21;;;;;;;16.02;4.60;;;;;;;;;;5052016;27;92470;-76
2024/01/24 11:23:48;;;;;;;15.60;3.67;;;;;;;;;;5040299;27;92323;-75
2024/01/24 11:26:18;;;;;;;14.25;4.53;;;;;;;;;;5051842;27;92449;-75
2024/01/24 11:28:45;;;;;;;11.90;3.80;;;;;;;;;;5038826;27;92134;-75
2024/01/24 11:31:12;;;;;;;18.95;4.40;;;;;;;;;;5050846;27;92552;-76
2024/01/24 11:33:58;;;;;;;19.38;3.83;;;;;;;;;;5053543;27;92755;-76
2024/01/24 11:36:25;;;;;;;16.33;3.58;;;;;;;;;;5050539;27;94909;-75
2024/01/24 11:38:52;;;;;;;20.95;4.43;;;;;;;;;;5053349;27;93964;-76
2024/01/24 11:41:22;;;;;;;13.00;3.65;;;;;;;;;;5053336;27;93426;-76
2024/01/24 11:43:49;;;;;;;13.17;3.97;;;;;;;;;;5034839;27;95464;-76
2024/01/24 11:46:21;;;;;;;18.75;4.82;;;;;;;;;;5018184;27;93563;-76
2024/01/24 11:48:48;;;;;;;20.50;4.60;;;;;;;;;;5053600;27;92591;-76
2024/01/24 11:51:15;;;;;;;19.98;5.28;;;;;;;;;;5053322;27;93044;-75
2024/01/24 11:53:42;;;;;;;21.48;4.15;;;;;;;;;;5053537;27;92228;-76
2024/01/24 11:56:14;;;;;;;10.80;3.50;;;;;;;;;;5056217;27;93067;-75
2024/01/24 11:58:41;;;;;;;18.10;3.40;;;;;;;;;;5054101;27;92468;-76
2024/01/24 12:01:08;;;;;;;12.73;3.78;;;;;;;;;;5048240;27;95442;-76
2024/01/24 12:03:35;;;;;;;16.20;4.63;;;;;;;;;;5053510;27;92407;-76
2024/01/24 12:06:02;;;;;;;19.00;4.20;;;;;;;;;;5051370;27;92970;-77
2024/01/24 12:08:29;;;;;;;13.38;4.15;;;;;;;;;;5042809;27;92448;-76
2024/01/24 12:10:55;;;;;;;13.38;3.83;;;;;;;;;;5051445;27;92720;-76
2024/01/24 12:13:23;;;;;;;13.27;3.78;;;;;;;;;;5053033;27;92339;-76
2024/01/24 12:15:50;;;;;;;13.48;4.43;;;;;;;;;;5052832;27;93268;-76
2024/01/24 12:18:18;;;;;;;13.50;4.20;;;;;;;;;;5056669;27;92165;-76
2024/01/24 12:20:46;;;;;;;14.90;3.78;;;;;;;;;;5052404;27;93645;-76
2024/01/24 12:23:13;;;;;;;9.65;2.85;;;;;;;;;;5053073;27;92950;-77
2024/01/24 12:25:40;;;;;;;16.33;4.13;;;;;;;;;;5050964;27;94729;-76
2024/01/24 12:28:07;;;;;;;11.13;4.00;;;;;;;;;;5054454;27;92229;-76
2024/01/24 12:30:35;;;;;;;15.73;4.00;;;;;;;;;;5034890;27;95008;-76
2024/01/24 12:33:03;;;;;;;15.63;3.83;;;;;;;;;;5054303;27;92293;-76
2024/01/24 12:35:30;;;;;;;15.52;3.42;;;;;;;;;;5052072;27;92564;-76
2024/01/24 12:38:00;;;;;;;13.38;3.47;;;;;;;;;;5053116;27;93068;-76
2024/01/24 12:40:27;;;;;;;15.05;3.67;;;;;;;;;;5037071;27;93868;-76
2024/01/24 12:42:54;;;;;;;12.82;3.95;;;;;;;;;;5053021;27;91969;-76
2024/01/24 12:45:23;;;;;;;18.17;3.50;;;;;;;;;;5052520;27;92457;-77
2024/01/24 12:47:49;;;;;;;12.23;3.33;;;;;;;;;;5053307;27;92491;-76
2024/01/24 12:50:16;;;;;;;13.93;3.22;;;;;;;;;;5051000;27;95343;-76
2024/01/24 12:52:43;;;;;;;18.08;3.83;;;;;;;;;;5017452;27;97251;-76
2024/01/24 12:55:10;;;;;;;10.50;3.38;;;;;;;;;;5033182;27;92466;-76
2024/01/24 12:57:37;;;;;;;15.43;3.75;;;;;;;;;;5055903;27;92441;-76
2024/01/24 13:00:09;;;;;;;13.13;3.42;;;;;;;;;;5060287;27;92814;-77
2024/01/24 13:02:37;;;;;;;9.75;3.05;;;;;;;;;;5057596;27;92319;-76
2024/01/24 13:05:04;;;;;;;14.15;3.28;;;;;;;;;;5038516;27;92336;-77
2024/01/24 13:07:32;;;;;;;10.48;3.22;;;;;;;;;;5057432;27;92726;-77
2024/01/24 13:09:59;;;;;;;12.25;3.40;;;;;;;;;;5056325;27;92835;-77
2024/01/24 13:12:32;;;;;;;11.80;2.85;;;;;;;;;;5057010;27;92470;-76
2024/01/24 13:14:58;;;;;;;18.75;4.07;;;;;;;;;;5054393;27;94835;-76
2024/01/24 13:17:25;;;;;;;12.48;3.88;;;;;;;;;;5037714;27;92955;-76
2024/01/24 13:19:51;;;;;;;11.38;3.78;;;;;;;;;;5020157;27;94020;-76
2024/01/24 13:22:19;;;;;;;9.43;3.42;;;;;;;;;;5059314;27;92970;-76
2024/01/24 13:24:46;;;;;;;19.92;3.83;;;;;;;;;;5035938;27;92428;-77
2024/01/24 13:27:16;;;;;;;14.25;3.78;;;;;;;;;;5026752;27;92404;-77
2024/01/24 13:29:43;;;;;;;15.80;3.58;;;;;;;;;;5054764;27;92375;-77
2024/01/24 13:32:09;;;;;;;18.50;3.88;;;;;;;;;;5037776;27;92054;-76
2024/01/24 13:34:36;;;;;;;13.25;3.63;;;;;;;;;;5055795;27;92826;-76
2024/01/24 13:37:03;;;;;;;10.48;3.03;;;;;;;;;;5055530;27;92929;-76
2024/01/24 13:39:29;;;;;;;9.02;3.03;;;;;;;;;;5035540;27;94886;-76
2024/01/24 13:41:57;;;;;;;12.23;3.08;;;;;;;;;;5055880;27;92971;-77
2024/01/24 13:44:24;;;;;;;16.63;3.00;;;;;;;;;;5058548;27;92552;-76
2024/01/24 13:46:50;;;;;;;15.20;3.00;;;;;;;;;;5055390;27;92448;-76
2024/01/24 13:49:17;;;;;;;12.10;3.60;;;;;;;;;;5052954;27;92941;-77
2024/01/24 13:51:44;;;;;;;10.40;2.75;;;;;;;;;;5035128;27;92502;-76
2024/01/24 13:54:11;;;;;;;8.57;2.78;;;;;;;;;;5035017;27;94006;-76
2024/01/24 13:56:37;;;;;;;14.15;3.00;;;;;;;;;;5055826;27;92118;-76
2024/01/24 13:59:04;;;;;;;12.77;3.17;;;;;;;;;;5034735;27;92460;-76
2024/01/24 14:01:31;;;;;;;10.07;3.30;;;;;;;;;;5045638;27;92701;-76
2024/01/24 14:04:05;;;;;;;18.98;3.60;;;;;;;;;;5054178;27;94854;-76
2024/01/24 14:06:32;;;;;;;9.23;2.85;;;;;;;;;;5058229;27;94249;-76
2024/01/24 14:08:58;;;;;;;10.00;2.78;;;;;;;;;;5034840;27;92720;-77
2024/01/24 14:11:25;;;;;;;8.07;3.22;;;;;;;;;;5051390;27;93066;-76
2024/01/24 14:13:51;;;;;;;7.38;2.63;;;;;;;;;;5057053;27;93410;-77
2024/01/24 14:16:18;;;;;;;11.25;2.88;;;;;;;;;;5055643;27;93075;-77
2024/01/24 14:18:45;;;;;;;10.35;2.80;;;;;;;;;;5054841;27;92784;-76
2024/01/24 14:21:11;;;;;;;12.23;3.50;;;;;;;;;;5036273;27;92113;-77
2024/01/24 14:23:39;;;;;;;14.07;3.78;;;;;;;;;;5037115;27;94810;-77
2024/01/24 14:26:07;;;;;;;15.48;3.75;;;;;;;;;;5055153;27;92392;-77
2024/01/24 14:28:35;;;;;;;11.45;3.08;;;;;;;;;;5056110;27;96374;-77
2024/01/24 14:31:02;;;;;;;13.00;2.92;;;;;;;;;;5036031;27;94470;-77
2024/01/24 14:33:29;;;;;;;12.18;3.30;;;;;;;;;;5055187;27;93246;-76
2024/01/24 14:36:00;;;;;;;11.80;2.97;;;;;;;;;;5042274;27;92588;-77